Portada
METAR-TAF:

METAR-TAF

Aeroports :

Statesboro-Bulloch County Airport

Statesboro, Geòrgia, Estats Units d'Amèrica

latitud: 32-28-59N, longitud: 081-44-14W, altitud: 57 m

Observació

L'informe es va fer fa 10 minuts, a les 22:35 UTC
Vent calma
Temperatura 6°C
Humitat 52%
Pressió 1026 hPa
Visibilitat: 16.1 km
Cel clar

METAR: KTBR 132235Z AUTO 00000KT 10SM CLR 06/M03 A3029 RMK AO2 T00551031

Hora: 17:45 (22:45 UTC)


TAF: manca

Observacions i pronòstics meteorològics de més de 4000 aeroports (METAR i TAF).

Les estacions disponibles són els punts grocs i vermells al mapa.

Posi el ratolí al punt desitjat per veure el nom de l'estació.

Feu clic per veure les observacions i els pronòstics meteorològics.

Per canviar el mapa: feu clic els botons verds amb una creu de color negre per apropar; al botó verd amb un guió per allunyar la imatge; o en les fletxes verdes per a mapes adjacents.


METAR-TAF: